Terminal Aerodrome Forecast
Issued by NWS

Home | Current Version | Previous Version | Text Only | Print | Product List | Glossary On
Versions: 1 2 3 4 5 6 7 8 9 10 11 12 13 14 15 16 17 18 19 20 21 22 23 24 25 26 27 28
966
FTUS46 KMFR 271331 AAA
TAFRBG
TAF AMD
KRBG 271331Z 2714/2812 00000KT 3SM BR OVC002
     FM271700 VRB03KT P6SM -SHRA SCT025 OVC040
     FM272100 36010KT P6SM -SHRA SCT025 OVC040
     FM280300 VRB03KT P6SM -SHRA BKN025 OVC040=

USA.gov is the U.S. government's official web portal to all federal, state and local government web resources and services.